createdAt,value
2019-04-11T00:02:24.917Z,60.80
2019-04-11T00:04:54.708Z,60.72
2019-04-11T00:07:24.552Z,60.70
2019-04-11T00:09:54.655Z,60.68
2019-04-11T00:12:24.319Z,60.65
2019-04-11T00:14:53.955Z,60.61
2019-04-11T00:17:23.174Z,60.61
2019-04-11T00:19:53.748Z,60.57
2019-04-11T00:22:23.641Z,60.53
2019-04-11T00:24:53.532Z,60.46
2019-04-11T00:27:22.715Z,60.42
2019-04-11T00:29:51.919Z,60.38
2019-04-11T00:32:21.436Z,60.37
2019-04-11T00:34:51.166Z,60.35
2019-04-11T00:37:21.085Z,60.32
2019-04-11T00:39:52.037Z,60.31
2019-04-11T00:42:22.776Z,60.29
2019-04-11T00:44:52.331Z,60.28
2019-04-11T00:47:22.677Z,60.29
2019-04-11T00:49:51.957Z,60.28
2019-04-11T00:52:21.362Z,60.25
2019-04-11T00:54:51.152Z,60.31
2019-04-11T00:57:21.066Z,60.30
2019-04-11T00:59:50.949Z,60.32
2019-04-11T01:02:21.088Z,60.36
2019-04-11T01:04:50.879Z,60.36
2019-04-11T01:07:20.451Z,60.33
2019-04-11T01:09:50.706Z,60.34
2019-04-11T01:12:20.630Z,60.36
2019-04-11T01:14:51.147Z,60.39
2019-04-11T01:17:21.243Z,60.35
2019-04-11T01:19:51.139Z,60.34
2019-04-11T01:22:20.739Z,60.36
2019-04-11T01:24:50.321Z,60.34
2019-04-11T01:27:19.862Z,60.31
2019-04-11T01:29:49.935Z,60.32
2019-04-11T01:32:20.266Z,60.30
2019-04-11T01:34:49.435Z,60.33
2019-04-11T01:37:19.650Z,60.35
2019-04-11T01:39:55.736Z,60.33
2019-04-11T01:42:25.130Z,60.32
2019-04-11T01:44:54.800Z,60.33
2019-04-11T01:47:39.849Z,60.32
2019-04-11T01:50:10.558Z,60.35
2019-04-11T01:52:40.110Z,60.30
2019-04-11T01:55:10.292Z,60.31
2019-04-11T01:57:40.252Z,60.25
2019-04-11T02:00:12.851Z,60.28
2019-04-11T02:02:52.948Z,60.31
2019-04-11T02:05:29.461Z,60.35
2019-04-11T02:07:58.793Z,60.35
2019-04-11T02:10:28.706Z,60.41
2019-04-11T02:12:59.638Z,60.46
2019-04-11T02:15:30.372Z,60.46
2019-04-11T02:18:01.348Z,60.47
2019-04-11T02:20:31.232Z,60.49
2019-04-11T02:23:15.388Z,60.52
2019-04-11T02:25:56.603Z,60.58
2019-04-11T02:28:25.947Z,60.59
2019-04-11T02:30:56.610Z,60.55
2019-04-11T02:33:26.912Z,60.57
2019-04-11T02:35:57.214Z,60.65
2019-04-11T02:38:28.285Z,60.71
2019-04-11T02:40:57.977Z,60.77
2019-04-11T02:43:27.805Z,60.79
2019-04-11T02:46:10.043Z,60.82
2019-04-11T02:48:28.845Z,60.87
2019-04-11T02:50:58.513Z,60.93
2019-04-11T02:53:29.926Z,60.96
2019-04-11T02:56:00.652Z,60.99
2019-04-11T02:58:31.769Z,61.00
2019-04-11T03:01:05.038Z,61.08
2019-04-11T03:03:34.086Z,61.09
2019-04-11T03:06:04.459Z,61.12
2019-04-11T03:08:36.305Z,61.15
2019-04-11T03:11:07.731Z,61.21
2019-04-11T03:13:38.360Z,61.26
2019-04-11T03:16:24.007Z,61.29
2019-04-11T03:18:54.857Z,61.31
2019-04-11T03:21:14.584Z,61.38
2019-04-11T03:23:41.751Z,61.37
2019-04-11T03:26:14.149Z,61.38
2019-04-11T03:28:47.528Z,61.44
2019-04-11T03:31:58.296Z,61.49
2019-04-11T03:34:38.478Z,61.49
2019-04-11T03:37:08.557Z,61.49
2019-04-11T03:39:11.624Z,61.55
2019-04-11T03:41:39.983Z,61.55
2019-04-11T03:44:01.929Z,61.55
2019-04-11T03:46:38.456Z,61.61
2019-04-11T03:49:03.821Z,61.65
2019-04-11T03:51:27.629Z,61.69
2019-04-11T03:53:58.902Z,61.73
2019-04-11T03:56:28.752Z,61.77
2019-04-11T03:58:58.548Z,61.82
2019-04-11T04:01:29.639Z,61.84
2019-04-11T04:04:00.620Z,61.84
2019-04-11T04:06:31.062Z,61.89
2019-04-11T04:09:02.798Z,61.87
2019-04-11T04:11:34.718Z,61.90
2019-04-11T04:14:21.819Z,61.91
2019-04-11T04:17:04.176Z,61.97
2019-04-11T04:19:51.806Z,61.91
2019-04-11T04:22:33.069Z,61.90
2019-04-11T04:25:04.285Z,61.92
2019-04-11T04:27:34.804Z,61.91
2019-04-11T04:30:06.065Z,61.98
2019-04-11T04:32:36.290Z,62.00
2019-04-11T04:35:10.461Z,62.04
2019-04-11T04:37:38.618Z,62.00
2019-04-11T04:40:23.287Z,62.03
2019-04-11T04:42:46.675Z,62.10
2019-04-11T04:45:14.664Z,62.07
2019-04-11T04:47:48.974Z,62.08
2019-04-11T04:50:14.516Z,62.08
2019-04-11T04:52:44.996Z,62.06
2019-04-11T04:55:14.289Z,62.07
2019-04-11T04:57:44.969Z,62.03
2019-04-11T05:00:15.117Z,62.01
2019-04-11T05:02:44.694Z,62.01
2019-04-11T05:05:14.137Z,62.03
2019-04-11T05:07:46.264Z,61.99
2019-04-11T05:10:15.433Z,61.98
2019-04-11T05:12:46.098Z,61.96
2019-04-11T05:15:16.653Z,61.95
2019-04-11T05:17:46.780Z,61.87
2019-04-11T05:20:16.403Z,61.90
2019-04-11T05:22:45.635Z,61.91
2019-04-11T05:25:14.913Z,61.83
2019-04-11T05:27:45.358Z,61.81
2019-04-11T05:30:14.910Z,61.77
2019-04-11T05:32:45.187Z,61.76
2019-04-11T05:35:14.455Z,61.67
2019-04-11T05:37:43.701Z,61.66
2019-04-11T05:40:13.143Z,61.58
2019-04-11T05:42:42.341Z,61.56
2019-04-11T05:45:17.328Z,61.45
2019-04-11T05:47:43.501Z,61.42
2019-04-11T05:50:26.269Z,61.39
2019-04-11T05:52:56.711Z,61.34
2019-04-11T05:55:27.981Z,61.16
2019-04-11T05:57:58.932Z,61.08
2019-04-11T06:00:47.159Z,60.91
2019-04-11T06:03:17.669Z,60.77
2019-04-11T06:06:18.409Z,60.73
2019-04-11T06:08:48.294Z,60.57
2019-04-11T06:11:28.647Z,60.47
2019-04-11T06:14:13.108Z,60.35
2019-04-11T06:16:50.300Z,60.31
2019-04-11T06:19:33.598Z,60.12
2019-04-11T06:22:08.661Z,59.98
2019-04-11T06:24:56.517Z,59.80
2019-04-11T06:27:30.460Z,59.80
2019-04-11T06:30:17.961Z,59.74
2019-04-11T06:33:06.406Z,59.79
2019-04-11T06:35:57.769Z,59.83
2019-04-11T06:38:58.679Z,59.90
2019-04-11T06:41:36.811Z,60.03
2019-04-11T06:44:28.006Z,60.06
2019-04-11T06:47:08.291Z,60.16
2019-04-11T06:50:00.506Z,59.97
2019-04-11T06:52:29.970Z,59.68
2019-04-11T06:55:27.418Z,59.70
2019-04-11T06:58:10.779Z,59.58
2019-04-11T07:00:42.159Z,59.59
2019-04-11T07:03:19.597Z,59.52
2019-04-11T07:05:43.644Z,59.28
2019-04-11T07:08:16.054Z,59.19
2019-04-11T07:10:51.113Z,59.19
2019-04-11T07:13:43.367Z,59.16
2019-04-11T07:16:13.355Z,59.25
2019-04-11T07:19:00.636Z,59.33
2019-04-11T07:21:35.406Z,59.61
2019-04-11T07:24:22.754Z,59.82
2019-04-11T07:26:58.815Z,60.09
2019-04-11T07:29:59.613Z,60.29
2019-04-11T07:32:29.971Z,60.31
2019-04-11T07:35:27.747Z,60.71
2019-04-11T07:37:58.289Z,61.05
2019-04-11T07:40:56.240Z,61.27
2019-04-11T07:43:29.206Z,62.53
2019-04-11T07:46:25.119Z,62.49
2019-04-11T07:49:03.837Z,61.64
2019-04-11T07:51:36.302Z,61.84
2019-04-11T07:54:11.899Z,60.39
2019-04-11T07:57:04.022Z,58.13
2019-04-11T07:59:49.055Z,57.36
2019-04-11T08:02:37.618Z,56.12
2019-04-11T08:05:27.733Z,55.34
2019-04-11T08:08:17.603Z,54.64
2019-04-11T08:10:56.715Z,54.56
2019-04-11T08:13:34.559Z,55.05
2019-04-11T08:16:22.376Z,55.34
2019-04-11T08:19:09.782Z,55.45
2019-04-11T08:21:56.757Z,55.27
2019-04-11T08:24:32.767Z,55.53
2019-04-11T08:27:19.750Z,56.09
2019-04-11T08:29:51.615Z,55.69
2019-04-11T08:32:40.252Z,55.55
2019-04-11T08:35:36.650Z,55.05
2019-04-11T08:38:09.938Z,54.15
2019-04-11T08:40:49.173Z,53.92
2019-04-11T08:43:23.399Z,54.01
2019-04-11T08:46:03.240Z,54.71
2019-04-11T08:48:35.163Z,55.50
2019-04-11T08:51:08.099Z,55.28
2019-04-11T08:53:55.467Z,55.17
2019-04-11T08:56:25.102Z,55.18
2019-04-11T08:59:30.886Z,55.27
2019-04-11T09:02:00.473Z,55.04
2019-04-11T09:04:50.311Z,54.46
2019-04-11T09:07:25.410Z,54.10
2019-04-11T09:10:26.213Z,54.23
2019-04-11T09:13:20.620Z,53.95
2019-04-11T09:16:07.626Z,53.53
2019-04-11T09:18:38.407Z,53.29
2019-04-11T09:21:39.016Z,53.38
2019-04-11T09:24:18.686Z,54.02
2019-04-11T09:27:06.588Z,55.55
2019-04-11T09:29:39.927Z,55.58
2019-04-11T09:32:28.493Z,54.48
2019-04-11T09:35:03.650Z,52.04
2019-04-11T09:37:36.010Z,49.81
2019-04-11T09:40:26.334Z,48.75
2019-04-11T09:43:24.162Z,48.43
2019-04-11T09:46:21.961Z,48.91
2019-04-11T09:49:10.641Z,49.40
2019-04-11T09:52:00.470Z,49.52
2019-04-11T09:54:54.834Z,49.84
2019-04-11T09:57:44.130Z,50.06
2019-04-11T10:00:47.961Z,50.47
2019-04-11T10:03:26.168Z,50.69
2019-04-11T10:06:21.693Z,50.54
2019-04-11T10:08:55.473Z,50.16
2019-04-11T10:11:59.040Z,50.02
2019-04-11T10:14:31.604Z,50.03
2019-04-11T10:17:22.312Z,50.09
2019-04-11T10:19:56.137Z,50.17
2019-04-11T10:22:48.098Z,51.09
2019-04-11T10:25:23.847Z,51.18
2019-04-11T10:28:31.928Z,50.54
2019-04-11T10:31:10.587Z,49.94
2019-04-11T10:33:57.874Z,48.77
2019-04-11T10:36:45.418Z,46.51
2019-04-11T10:39:33.254Z,46.43
2019-04-11T10:42:08.658Z,46.96
2019-04-11T10:44:56.300Z,47.60
2019-04-11T10:47:27.472Z,48.35
2019-04-11T10:50:15.457Z,49.02
2019-04-11T10:52:48.844Z,49.83
2019-04-11T10:55:35.756Z,50.40
2019-04-11T10:58:12.946Z,50.89
2019-04-11T11:00:59.775Z,51.01
2019-04-11T11:03:38.286Z,50.83
2019-04-11T11:06:07.680Z,50.56
2019-04-11T11:08:55.568Z,50.21
2019-04-11T11:11:28.838Z,49.98
2019-04-11T11:14:24.774Z,49.73
2019-04-11T11:17:46.111Z,49.18
2019-04-11T11:20:26.329Z,49.50
2019-04-11T11:23:10.151Z,50.25
2019-04-11T11:25:48.605Z,50.09
2019-04-11T11:28:18.187Z,49.32
2019-04-11T11:31:11.928Z,48.28
2019-04-11T11:33:42.745Z,46.37
2019-04-11T11:36:39.898Z,45.05
2019-04-11T11:39:22.843Z,44.79
2019-04-11T11:42:23.136Z,45.12
2019-04-11T11:44:55.331Z,45.14
2019-04-11T11:47:44.916Z,45.17
2019-04-11T11:50:18.775Z,45.15
2019-04-11T11:53:25.859Z,45.21
2019-04-11T11:55:55.727Z,45.45
2019-04-11T11:58:51.870Z,46.17
2019-04-11T12:01:17.899Z,46.57
2019-04-11T12:04:12.839Z,46.66
2019-04-11T12:06:43.035Z,45.96
2019-04-11T12:09:30.814Z,45.77
2019-04-11T12:12:04.875Z,45.36
2019-04-11T12:14:43.364Z,45.40
2019-04-11T12:17:33.589Z,45.41
2019-04-11T12:20:12.594Z,45.15
2019-04-11T12:22:42.240Z,43.72
2019-04-11T12:25:35.110Z,42.19
2019-04-11T12:28:29.974Z,41.73
2019-04-11T12:31:03.846Z,41.57
2019-04-11T12:33:49.983Z,41.53
2019-04-11T12:36:22.999Z,41.30
2019-04-11T12:39:14.568Z,40.78
2019-04-11T12:41:55.376Z,40.24
2019-04-11T12:44:49.575Z,40.24
2019-04-11T12:47:24.602Z,40.25
2019-04-11T12:50:09.249Z,40.28
2019-04-11T12:52:41.461Z,39.50
2019-04-11T12:55:14.406Z,39.27
2019-04-11T12:58:02.620Z,39.34
2019-04-11T13:00:41.857Z,39.74
2019-04-11T13:03:28.930Z,40.16
2019-04-11T13:06:02.312Z,40.62
2019-04-11T13:08:50.457Z,40.96
2019-04-11T13:11:20.318Z,41.22
2019-04-11T13:14:17.359Z,41.58
2019-04-11T13:16:48.829Z,41.82
2019-04-11T13:19:41.641Z,42.02
2019-04-11T13:22:16.990Z,42.23
2019-04-11T13:25:05.805Z,42.38
2019-04-11T13:27:42.558Z,42.51
2019-04-11T13:30:49.687Z,42.54
2019-04-11T13:33:21.905Z,42.61
2019-04-11T13:36:07.050Z,42.60
2019-04-11T13:38:44.526Z,42.54
2019-04-11T13:41:50.916Z,42.55
2019-04-11T13:44:26.901Z,42.69
2019-04-11T13:47:15.593Z,43.00
2019-04-11T13:49:49.936Z,42.81
2019-04-11T13:52:38.122Z,42.23
2019-04-11T13:55:14.921Z,41.70
2019-04-11T13:58:04.788Z,40.99
2019-04-11T14:00:59.491Z,40.33
2019-04-11T14:03:48.458Z,40.17
2019-04-11T14:06:24.506Z,40.12
2019-04-11T14:09:24.751Z,39.76
2019-04-11T14:11:55.872Z,39.50
2019-04-11T14:14:35.777Z,39.63
2019-04-11T14:17:26.737Z,39.89
2019-04-11T14:20:11.883Z,40.10
2019-04-11T14:23:14.715Z,40.35
2019-04-11T14:26:02.230Z,40.60
2019-04-11T14:28:38.170Z,40.74
2019-04-11T14:31:37.581Z,40.97
2019-04-11T14:34:26.040Z,41.09
2019-04-11T14:37:00.674Z,41.10
2019-04-11T14:39:32.670Z,41.44
2019-04-11T14:42:19.804Z,42.06
2019-04-11T14:44:50.175Z,42.45
2019-04-11T14:47:47.209Z,42.84
2019-04-11T14:50:17.728Z,43.20
2019-04-11T14:52:54.808Z,43.46
2019-04-11T14:55:25.519Z,43.67
2019-04-11T14:58:12.465Z,43.80
2019-04-11T15:00:43.196Z,43.93
2019-04-11T15:03:44.271Z,43.86
2019-04-11T15:06:31.465Z,44.01
2019-04-11T15:09:31.667Z,44.05
2019-04-11T15:12:26.078Z,44.04
2019-04-11T15:15:23.357Z,44.12
2019-04-11T15:18:01.431Z,44.44
2019-04-11T15:21:01.883Z,44.66
2019-04-11T15:23:43.144Z,44.90
2019-04-11T15:26:30.217Z,45.05
2019-04-11T15:29:24.433Z,45.05
2019-04-11T15:32:14.275Z,45.04
2019-04-11T15:34:49.259Z,45.00
2019-04-11T15:37:40.242Z,45.03
2019-04-11T15:40:28.935Z,45.02
2019-04-11T15:43:17.071Z,45.05
2019-04-11T15:45:49.397Z,45.07
2019-04-11T15:48:36.073Z,45.21
2019-04-11T15:51:39.538Z,45.25
2019-04-11T15:54:27.710Z,45.21
2019-04-11T15:57:20.892Z,45.34
2019-04-11T16:00:15.313Z,45.57
2019-04-11T16:02:52.119Z,45.64
2019-04-11T16:05:49.740Z,45.74
2019-04-11T16:08:43.275Z,45.91
2019-04-11T16:11:34.386Z,46.03
2019-04-11T16:14:20.951Z,46.10
2019-04-11T16:17:15.164Z,46.14
2019-04-11T16:20:18.847Z,46.11
2019-04-11T16:23:10.184Z,46.02
2019-04-11T16:25:41.137Z,46.27
2019-04-11T16:28:38.170Z,45.41
2019-04-11T16:31:10.409Z,44.55
2019-04-11T16:33:58.915Z,44.35
2019-04-11T16:36:50.382Z,44.39
2019-04-11T16:39:54.729Z,44.47
2019-04-11T16:42:34.784Z,44.53
2019-04-11T16:45:25.130Z,44.72
2019-04-11T16:48:02.755Z,45.01
2019-04-11T16:50:32.412Z,44.89
2019-04-11T16:53:01.716Z,44.50
2019-04-11T16:55:31.285Z,44.25
2019-04-11T16:58:00.618Z,44.12
2019-04-11T17:00:30.231Z,44.19
2019-04-11T17:02:59.847Z,44.19
2019-04-11T17:05:29.153Z,44.28
2019-04-11T17:08:17.124Z,44.12
2019-04-11T17:11:00.586Z,43.99
2019-04-11T17:13:32.317Z,44.03
2019-04-11T17:16:01.693Z,44.14
2019-04-11T17:18:33.953Z,44.23
2019-04-11T17:21:02.113Z,44.24
2019-04-11T17:23:31.333Z,44.36
2019-04-11T17:26:00.782Z,44.40
2019-04-11T17:28:30.030Z,44.46
2019-04-11T17:30:59.357Z,44.56
2019-04-11T17:33:28.900Z,44.61
2019-04-11T17:36:02.104Z,44.70
2019-04-11T17:38:29.604Z,44.75
2019-04-11T17:40:58.860Z,44.87
2019-04-11T17:43:28.107Z,44.95
2019-04-11T17:45:57.737Z,45.12
2019-04-11T17:48:27.229Z,45.22
2019-04-11T17:50:56.818Z,45.35
2019-04-11T17:53:26.132Z,45.45
2019-04-11T17:55:55.319Z,45.59
2019-04-11T17:58:26.829Z,45.76
2019-04-11T18:01:00.429Z,45.89
2019-04-11T18:03:29.498Z,46.01
2019-04-11T18:05:58.699Z,46.11
2019-04-11T18:08:28.027Z,46.29
2019-04-11T18:10:57.268Z,46.51
2019-04-11T18:13:30.505Z,46.69
2019-04-11T18:16:00.895Z,46.80
2019-04-11T18:18:28.844Z,46.92
2019-04-11T18:20:58.191Z,46.97
2019-04-11T18:23:27.392Z,47.06
2019-04-11T18:25:56.792Z,47.19
2019-04-11T18:28:26.143Z,47.29
2019-04-11T18:30:55.355Z,47.34
2019-04-11T18:33:24.748Z,47.43
2019-04-11T18:35:54.134Z,47.56
2019-04-11T18:38:23.373Z,47.64
2019-04-11T18:40:52.766Z,47.79
2019-04-11T18:43:22.255Z,47.88
2019-04-11T18:45:51.513Z,48.02
2019-04-11T18:48:20.884Z,48.15
2019-04-11T18:50:50.862Z,48.27
2019-04-11T18:53:21.337Z,48.38
2019-04-11T18:55:50.615Z,48.46
2019-04-11T18:58:19.971Z,48.50
2019-04-11T19:00:49.201Z,48.66
2019-04-11T19:03:18.627Z,48.77
2019-04-11T19:05:47.939Z,48.93
2019-04-11T19:08:17.259Z,49.04
2019-04-11T19:10:46.697Z,49.14
2019-04-11T19:13:17.026Z,49.24
2019-04-11T19:15:46.840Z,49.35
2019-04-11T19:18:17.087Z,49.42
2019-04-11T19:20:49.993Z,49.47
2019-04-11T19:23:17.687Z,49.57
2019-04-11T19:25:47.021Z,49.68
2019-04-11T19:28:16.747Z,49.77
2019-04-11T19:30:46.659Z,49.85
2019-04-11T19:33:15.955Z,49.94
2019-04-11T19:35:45.537Z,50.06
2019-04-11T19:38:32.484Z,50.21
2019-04-11T19:41:01.981Z,50.29
2019-04-11T19:43:31.403Z,50.35
2019-04-11T19:46:00.695Z,50.45
2019-04-11T19:48:29.998Z,50.55
2019-04-11T19:50:59.527Z,50.70
2019-04-11T19:53:32.825Z,50.82
2019-04-11T19:56:17.297Z,50.96
2019-04-11T19:58:46.744Z,51.07
2019-04-11T20:01:16.007Z,51.13
2019-04-11T20:03:45.601Z,51.16
2019-04-11T20:06:14.837Z,51.22
2019-04-11T20:08:44.074Z,51.27
2019-04-11T20:11:13.733Z,51.36
2019-04-11T20:13:42.988Z,51.44
2019-04-11T20:16:13.176Z,51.53
2019-04-11T20:18:50.987Z,51.63
2019-04-11T20:21:13.845Z,51.75
2019-04-11T20:23:43.041Z,51.86
2019-04-11T20:26:12.484Z,51.87
2019-04-11T20:28:41.752Z,51.89
2019-04-11T20:31:10.957Z,51.86
2019-04-11T20:33:40.239Z,51.89
2019-04-11T20:36:11.288Z,51.95
2019-04-11T20:38:41.027Z,52.00
2019-04-11T20:41:10.346Z,52.06
2019-04-11T20:43:39.676Z,52.11
2019-04-11T20:46:09.190Z,52.28
2019-04-11T20:48:38.560Z,52.36
2019-04-11T20:51:08.167Z,52.47
2019-04-11T20:53:37.793Z,52.57
2019-04-11T20:56:09.720Z,52.66
2019-04-11T20:58:39.665Z,52.75
2019-04-11T21:01:09.504Z,52.82
2019-04-11T21:03:38.721Z,52.81
2019-04-11T21:06:08.165Z,52.91
2019-04-11T21:08:37.379Z,52.95
2019-04-11T21:11:06.578Z,52.97
2019-04-11T21:13:38.135Z,53.00
2019-04-11T21:16:06.881Z,53.08
2019-04-11T21:18:36.070Z,53.15
2019-04-11T21:21:05.495Z,53.16
2019-04-11T21:23:34.686Z,53.19
2019-04-11T21:26:03.923Z,53.23
2019-04-11T21:28:33.314Z,53.23
2019-04-11T21:31:02.525Z,53.27
2019-04-11T21:33:34.210Z,53.32
2019-04-11T21:36:02.936Z,53.36
2019-04-11T21:38:32.138Z,53.41
2019-04-11T21:41:01.335Z,53.49
2019-04-11T21:43:30.731Z,53.52
2019-04-11T21:45:59.937Z,53.60
2019-04-11T21:48:29.249Z,53.65
2019-04-11T21:50:58.628Z,53.67
2019-04-11T21:53:36.467Z,53.72
2019-04-11T21:55:58.795Z,53.77
2019-04-11T21:58:28.267Z,53.77
2019-04-11T22:01:05.182Z,53.82
2019-04-11T22:03:34.649Z,53.84
2019-04-11T22:06:04.069Z,53.86
2019-04-11T22:08:34.447Z,53.91
2019-04-11T22:11:04.696Z,53.94
2019-04-11T22:13:33.924Z,54.02
2019-04-11T22:16:03.124Z,54.10
2019-04-11T22:18:32.610Z,54.18
2019-04-11T22:21:01.980Z,54.17
2019-04-11T22:23:31.702Z,54.20
2019-04-11T22:26:01.114Z,54.24
2019-04-11T22:28:30.439Z,54.27
2019-04-11T22:30:59.908Z,54.30
2019-04-11T22:33:39.366Z,54.37
2019-04-11T22:36:08.751Z,54.48
2019-04-11T22:38:37.956Z,54.51
2019-04-11T22:41:07.455Z,54.54
2019-04-11T22:43:38.118Z,54.57
2019-04-11T22:46:08.514Z,54.55
2019-04-11T22:48:39.065Z,54.55
2019-04-11T22:51:11.244Z,54.49
2019-04-11T22:53:43.312Z,54.54
2019-04-11T22:56:12.385Z,54.56
2019-04-11T22:58:43.815Z,54.58
2019-04-11T23:01:13.968Z,54.64
2019-04-11T23:04:10.172Z,54.71
2019-04-11T23:06:39.415Z,54.71
2019-04-11T23:09:08.810Z,54.67
2019-04-11T23:11:38.175Z,54.77
2019-04-11T23:14:07.385Z,54.86
2019-04-11T23:16:36.615Z,54.88
2019-04-11T23:19:06.279Z,55.05
2019-04-11T23:21:35.473Z,55.10
2019-04-11T23:24:11.793Z,55.17
2019-04-11T23:26:36.129Z,55.21
2019-04-11T23:29:05.315Z,55.27
2019-04-11T23:31:34.518Z,55.35
2019-04-11T23:34:03.921Z,55.44
2019-04-11T23:36:33.116Z,55.49
2019-04-11T23:39:02.315Z,55.58
2019-04-11T23:41:31.719Z,55.62
2019-04-11T23:44:00.924Z,55.65
2019-04-11T23:46:30.128Z,55.73
2019-04-11T23:48:59.521Z,55.77
2019-04-11T23:51:29.020Z,55.84
2019-04-11T23:53:59.708Z,55.90
2019-04-11T23:56:30.702Z,55.92
2019-04-11T23:59:02.124Z,56.04
